Data for 12/15/2013

Time Sea-Level Adjusted Pressure Absolute Pressure Temperature Relative Humidity Dew Point   
(mb) (inHg) (mb) (inHg) (C) (F) (%) (C) (F)
00:05 1022 30.18 851 25.13 4.7 40.4 52 -4.3 24.3
00:10 1022 30.18 851 25.13 4.7 40.5 53 -4 24.9
00:15 1022 30.18 851 25.13 4.5 40 55 -3.9 25
00:20 1022 30.18 851 25.13 4.3 39.7 55 -4.1 24.6
00:25 1022 30.18 851 25.13 4.4 40 52 -4.7 23.6
00:30 1021 30.15 851 25.13 4.9 40.9 49 -5 23.1
00:35 1022 30.18 851 25.13 5.2 41.3 48 -4.9 23.1
00:40 1022 30.18 851 25.13 5.3 41.5 48 -4.9 23.2
00:45 1022 30.18 851 25.13 5 41 51 -4.2 24.4
00:50 1022 30.18 851 25.13 4.7 40.4 50 -4.9 23.2
00:55 1022 30.18 851 25.13 4.8 40.7 50 -4.6 23.6
01:00 1022 30.18 851 25.13 4.6 40.2 52 -4.6 23.8
01:05 1022 30.18 851 25.13 4.2 39.5 54 -4.3 24.2
01:10 1022 30.18 851 25.13 3.8 38.8 55 -4.5 24
01:15 1022 30.18 851 25.13 3.8 38.8 52 -5.1 22.9
01:20 1022 30.18 851 25.13 4.4 39.9 49 -5.6 22
01:25 1022 30.18 851 25.13 4.8 40.7 46 -5.9 21.3
01:30 1022 30.18 851 25.13 5.3 41.6 44 -5.9 21.4
01:35 1022 30.18 851 25.13 5.6 42.2 44 -5.5 22.1
01:40 1022 30.18 851 25.13 5.3 41.6 45 -5.5 22.1
01:45 1022 30.18 851 25.13 5.1 41.2 47 -5.2 22.6
01:50 1022 30.18 851 25.13 4.6 40.2 50 -5 23
01:55 1022 30.18 851 25.13 4.2 39.5 51 -5.1 22.9
02:00 1022 30.18 851 25.13 3.9 39.1 52 -5.2 22.7
02:05 1022 30.18 851 25.13 3.7 38.6 53 -5.1 22.8
02:10 1022 30.18 851 25.13 3.5 38.4 52 -5.4 22.3
02:15 1022 30.18 851 25.13 3.8 38.9 50 -5.6 21.8
02:20 1022 30.18 851 25.13 4.2 39.6 47 -6 21.2
02:25 1022 30.18 851 25.13 4.9 40.7 43 -6.7 20
02:30 1022 30.18 851 25.13 5.7 42.3 40 -6.9 19.6
02:35 1022 30.18 851 25.13 5.6 42.1 46 -5.1 22.7
02:40 1022 30.18 851 25.13 4.8 40.6 48 -5.2 22.6
02:45 1022 30.18 851 25.13 4.3 39.8 51 -5 23
02:50 1022 30.18 851 25.13 3.9 39 52 -5.1 22.7
02:55 1022 30.18 851 25.13 3.8 38.8 51 -5.5 22.2
03:00 1022 30.18 851 25.13 3.9 39 50 -5.6 21.9
03:05 1022 30.18 851 25.13 4.1 39.3 49 -5.7 21.7
03:10 1022 30.18 852 25.16 4.1 39.4 49 -5.7 21.7
03:15 1022 30.18 852 25.16 4.2 39.5 47 -6.1 21.1
03:20 1022 30.18 851 25.13 4.5 40.1 44 -6.6 20.1
03:25 1022 30.18 851 25.13 4.7 40.5 45 -6.1 20.9
03:30 1022 30.18 851 25.13 4.5 40.1 46 -6 21.2
03:35 1022 30.18 851 25.13 4.3 39.8 46 -6.2 20.8
03:40 1022 30.18 851 25.13 4.3 39.7 47 -6 21.2
03:45 1022 30.18 851 25.13 4.1 39.4 48 -6.1 21.1
03:50 1022 30.18 851 25.13 4.1 39.3 46 -6.4 20.4
03:55 1022 30.18 851 25.13 4 39.3 47 -6.3 20.6
04:00 1022 30.18 851 25.13 4 39.1 47 -6.4 20.4
04:05 1022 30.18 851 25.13 3.9 39 46 -6.6 20.1
04:10 1022 30.18 851 25.13 3.9 39.1 45 -6.8 19.7
04:15 1022 30.18 851 25.13 4 39.3 44 -7 19.4
04:20 1022 30.18 851 25.13 4.5 40.2 41 -7.5 18.6
04:25 1022 30.18 851 25.13 4.9 40.8 40 -7.5 18.6
04:30 1022 30.18 851 25.13 4.9 40.9 40 -7.4 18.6
04:35 1022 30.18 851 25.13 5 41 39 -7.7 18.2
04:40 1022 30.18 852 25.16 5 40.9 41 -7.1 19.2
04:45 1022 30.18 852 25.16 4.7 40.4 41 -7.4 18.7
04:50 1022 30.18 851 25.13 4.6 40.2 41 -7.4 18.7
04:55 1022 30.18 851 25.13 4.6 40.3 41 -7.5 18.5
05:00 1022 30.18 851 25.13 4.8 40.6 38 -8.2 17.2
05:05 1022 30.18 851 25.13 5.1 41.2 38 -8 17.6
05:10 1022 30.18 852 25.16 5.1 41.2 39 -7.8 18
05:15 1022 30.18 852 25.16 4.9 40.9 40 -7.6 18.4
05:20 1022 30.18 852 25.16 4.8 40.6 40 -7.6 18.4
05:25 1022 30.18 852 25.16 4.9 40.7 38 -8.4 17
05:30 1022 30.18 852 25.16 5.3 41.5 38 -7.9 17.8
05:35 1022 30.18 852 25.16 5 40.9 39 -7.9 17.7
05:40 1022 30.18 852 25.16 5 41 40 -7.4 18.7
05:45 1022 30.18 852 25.16 4.7 40.5 41 -7.4 18.6
05:50 1022 30.18 852 25.16 4.4 39.8 41 -7.7 18.1
05:55 1022 30.18 852 25.16 4.1 39.4 42 -7.8 18
06:00 1022 30.18 852 25.16 3.9 39 42 -7.8 17.9
06:05 1022 30.18 852 25.16 3.9 38.9 43 -7.6 18.3
06:10 1022 30.18 852 25.16 3.8 38.9 41 -8.1 17.4
06:15 1022 30.18 852 25.16 3.8 38.8 43 -7.8 17.9
06:20 1022 30.18 852 25.16 3.6 38.4 43 -7.8 17.9
06:25 1022 30.18 852 25.16 3.3 37.9 44 -8 17.6
06:30 1022 30.18 851 25.13 3.2 37.8 43 -8.3 17.1
06:35 1022 30.18 851 25.13 3.3 37.9 43 -8.1 17.4
06:40 1022 30.18 851 25.13 3.1 37.7 44 -8 17.6
06:45 1022 30.18 851 25.13 2.8 37.1 46 -7.8 18
06:50 1022 30.18 851 25.13 2.5 36.5 47 -7.8 18
06:55 1022 30.18 852 25.16 1.9 35.5 49 -7.6 18.3
07:00 1022 30.18 852 25.16 1.6 34.8 49 -8.1 17.5
07:05 1022 30.18 851 25.13 1.8 35.3 47 -8.3 17.1
07:10 1022 30.18 851 25.13 2.2 36 45 -8.4 16.8
07:15 1022 30.18 851 25.13 2.8 37 43 -8.6 16.5
07:20 1022 30.18 851 25.13 3.2 37.8 42 -8.7 16.4
07:25 1022 30.18 851 25.13 3.2 37.8 43 -8.2 17.2
07:30 1022 30.18 851 25.13 3 37.5 43 -8.3 17
07:35 1022 30.18 851 25.13 2.9 37.2 45 -8 17.5
07:40 1022 30.18 851 25.13 2.8 37.1 44 -8.4 16.9
07:45 1022 30.18 851 25.13 3 37.4 44 -8.1 17.5
07:50 1022 30.18 851 25.13 3 37.3 45 -7.9 17.8
07:55 1021 30.15 851 25.13 2.7 36.8 46 -7.7 18.1
08:00 1021 30.15 851 25.13 2.5 36.5 46 -8 17.6
08:05 1022 30.18 851 25.13 2.6 36.7 46 -7.8 17.9
08:10 1022 30.18 851 25.13 2.5 36.6 47 -7.6 18.4
08:15 1022 30.18 851 25.13 2.4 36.3 47 -7.7 18.2
08:20 1022 30.18 851 25.13 2.4 36.4 46 -7.9 17.8
08:25 1022 30.18 851 25.13 2.9 37.3 44 -8.3 17.1
08:30 1022 30.18 851 25.13 3.3 38 42 -8.4 16.9
08:35 1022 30.18 851 25.13 3.6 38.5 42 -8.3 17.1
08:40 1022 30.18 851 25.13 3.7 38.7 40 -8.8 16.1
08:45 1022 30.18 851 25.13 4 39.1 41 -8.2 17.3
08:50 1022 30.18 851 25.13 3.3 38 43 -7.9 17.7
08:55 1022 30.18 851 25.13 2.8 37 45 -7.9 17.7
09:00 1022 30.18 851 25.13 2.6 36.6 45 -8.3 17
09:05 1022 30.18 851 25.13 2.8 37 44 -8.2 17.2
09:10 1022 30.18 851 25.13 2.9 37.3 43 -8.5 16.7
09:15 1022 30.18 851 25.13 3.1 37.6 41 -8.9 16
09:20 1022 30.18 851 25.13 3.5 38.3 40 -8.9 15.9
09:25 1022 30.18 851 25.13 3.9 39 39 -8.9 16
09:30 1022 30.18 851 25.13 4 39.2 39 -8.6 16.5
09:35 1022 30.18 851 25.13 3.9 39.1 42 -8 17.7
09:40 1022 30.18 851 25.13 3.3 37.9 43 -8.2 17.2
09:45 1022 30.18 851 25.13 3.1 37.6 44 -7.8 17.9
09:50 1022 30.18 851 25.13 2.9 37.2 46 -7.7 18.1
09:55 1022 30.18 851 25.13 2.6 36.7 47 -7.7 18.1
10:00 1022 30.18 851 25.13 2.4 36.3 47 -7.7 18.1
10:05 1022 30.18 851 25.13 2.3 36.2 48 -7.7 18.1
10:10 1022 30.18 851 25.13 2.3 36.1 46 -8.1 17.5
10:15 1022 30.18 851 25.13 2.5 36.4 46 -8.1 17.3
10:20 1022 30.18 851 25.13 2.5 36.6 45 -8.2 17.3
10:25 1022 30.18 851 25.13 2.7 36.8 45 -8.1 17.5
10:30 1022 30.18 851 25.13 2.8 37 44 -8.3 17.1
10:35 1022 30.18 851 25.13 3 37.4 44 -8 17.7
10:40 1022 30.18 851 25.13 3 37.4 45 -7.9 17.7
10:45 1022 30.18 851 25.13 3 37.4 47 -7.3 18.9
10:50 1022 30.18 851 25.13 2.9 37.3 46 -7.5 18.5
10:55 1022 30.18 851 25.13 2.8 37.1 46 -7.6 18.3
11:00 1022 30.18 851 25.13 2.9 37.2 46 -7.5 18.4
11:05 1022 30.18 851 25.13 2.8 37 47 -7.3 18.8
11:10 1022 30.18 851 25.13 2.7 36.9 47 -7.5 18.4
11:15 1022 30.18 851 25.13 2.6 36.7 49 -7.1 19.2
11:20 1022 30.18 851 25.13 2.8 37 49 -7 19.4
11:25 1022 30.18 851 25.13 3 37.3 48 -7.1 19.2
11:30 1022 30.18 851 25.13 3 37.4 49 -6.8 19.7
11:35 1022 30.18 851 25.13 3.1 37.5 44 -7.9 17.8
11:40 1022 30.18 851 25.13 3.2 37.8 46 -7.4 18.7
11:45 1022 30.18 851 25.13 3.2 37.8 46 -7.4 18.7
11:50 1022 30.18 851 25.13 3.3 37.9 45 -7.6 18.4
11:55 1022 30.18 851 25.13 3 37.4 43 -8.3 17.1
12:00 1022 30.18 851 25.13 3.5 38.2 38 -9.4 15
12:05 1021 30.15 851 25.13 4.4 40 39 -8.2 17.2
12:10 1021 30.15 851 25.13 4.7 40.4 39 -8 17.6
12:15 1021 30.15 850 25.1 4.5 40.1 40 -8 17.5
12:20 1021 30.15 850 25.1 4.2 39.6 39 -8.5 16.6
12:25 1021 30.15 850 25.1 4.6 40.4 38 -8.4 16.9
12:30 1021 30.15 850 25.1 5 41 38 -8.3 17.1
12:35 1021 30.15 850 25.1 5.2 41.4 38 -8 17.7
12:40 1021 30.15 850 25.1 5.4 41.7 37 -8.3 17.1
12:45 1021 30.15 850 25.1 5.5 41.9 36 -8.3 17
12:50 1021 30.15 850 25.1 5.7 42.3 35 -8.5 16.7
12:55 1021 30.15 850 25.1 5.7 42.3 36 -8.3 17.1
13:00 1021 30.15 850 25.1 5.7 42.3 36 -8.3 17
13:05 1021 30.15 850 25.1 5.8 42.4 36 -8.1 17.5
13:10 1020 30.12 850 25.1 5.8 42.4 38 -7.5 18.6
13:15 1021 30.15 850 25.1 5.7 42.3 39 -7.2 19.1
13:20 1021 30.15 850 25.1 5.6 42.1 39 -7.4 18.6
13:25 1020 30.12 850 25.1 5.7 42.2 37 -7.9 17.8
13:30 1020 30.12 850 25.1 5.9 42.6 37 -7.9 17.8
13:35 1020 30.12 850 25.1 6.1 43 35 -8.1 17.4
13:40 1020 30.12 850 25.1 6.4 43.4 36 -7.8 18
13:45 1020 30.12 850 25.1 6.3 43.4 34 -8.4 17
13:50 1020 30.12 850 25.1 6.5 43.8 34 -8.3 17.1
13:55 1020 30.12 850 25.1 6.4 43.5 34 -8.4 16.9
14:00 1020 30.12 849 25.07 6.4 43.5 36 -7.6 18.2
14:05 1020 30.12 849 25.07 6.3 43.4 36 -7.8 17.9
14:10 1020 30.12 849 25.07 6.6 43.9 34 -8.2 17.2
14:15 1020 30.12 849 25.07 6.9 44.4 33 -8.1 17.4
14:20 1020 30.12 849 25.07 7.2 45 34 -7.7 18.1
14:25 1020 30.12 849 25.07 7.4 45.3 32 -8.1 17.4
14:30 1020 30.12 849 25.07 7.5 45.4 34 -7.4 18.7
14:35 1020 30.12 849 25.07 7.4 45.4 34 -7.4 18.7
14:40 1020 30.12 849 25.07 7.2 45 35 -7 19.3
14:45 1020 30.12 849 25.07 7 44.7 37 -6.6 20.1
14:50 1020 30.12 849 25.07 6.7 44.1 39 -6.2 20.9
14:55 1020 30.12 849 25.07 6.6 44 39 -6.2 20.8
15:00 1020 30.12 849 25.07 6.8 44.2 39 -6.4 20.5
15:05 1020 30.12 849 25.07 6.8 44.3 39 -6.1 21
15:10 1020 30.12 849 25.07 6.6 43.8 39 -6.3 20.7
15:15 1020 30.12 849 25.07 6.7 44 36 -7.4 18.7
15:20 1020 30.12 849 25.07 7.1 44.9 35 -7.1 19.2
15:25 1020 30.12 849 25.07 7.4 45.4 35 -7.2 19
15:30 1020 30.12 849 25.07 7.5 45.6 36 -6.6 20.1
15:35 1020 30.12 849 25.07 7.4 45.3 36 -6.7 19.9
15:40 1020 30.12 849 25.07 7.3 45.2 36 -6.6 20
15:45 1020 30.12 849 25.07 7.5 45.4 34 -7.5 18.4
15:50 1020 30.12 849 25.07 7.7 45.9 34 -7.2 19
15:55 1020 30.12 849 25.07 7.7 45.9 33 -7.5 18.5
16:00 1020 30.12 849 25.07 7.8 46 34 -7 19.3
16:05 1020 30.12 849 25.07 7.5 45.5 35 -7.1 19.3
16:10 1020 30.12 849 25.07 7.2 45 37 -6.5 20.3
16:15 1020 30.12 849 25.07 7 44.6 38 -6.4 20.4
16:20 1020 30.12 849 25.07 7.4 45.3 34 -7.5 18.5
16:25 1020 30.12 849 25.07 8.1 46.6 33 -7.3 18.9
16:30 1019 30.09 849 25.07 8.6 47.4 32 -7.2 19
16:35 1020 30.12 849 25.07 8.4 47.2 33 -6.9 19.6
16:40 1020 30.12 849 25.07 8.2 46.7 33 -7 19.5
16:45 1020 30.12 849 25.07 8 46.4 35 -6.4 20.5
16:50 1020 30.12 849 25.07 7.8 46.1 36 -6.4 20.5
16:55 1020 30.12 849 25.07 8 46.3 35 -6.4 20.5
17:00 1020 30.12 849 25.07 8 46.4 35 -6.5 20.3
17:05 1020 30.12 849 25.07 7.9 46.2 36 -6.3 20.7
17:10 1020 30.12 849 25.07 7.8 46 36 -6.2 20.8
17:15 1020 30.12 849 25.07 7.7 45.8 37 -6.2 20.9
17:20 1020 30.12 849 25.07 7.5 45.6 37 -6.1 21
17:25 1020 30.12 849 25.07 7.5 45.5 37 -6.1 20.9
17:30 1020 30.12 849 25.07 7.7 45.8 34 -7.1 19.3
17:35 1020 30.12 849 25.07 8.3 46.9 33 -6.9 19.6
17:40 1020 30.12 849 25.07 8.1 46.7 36 -6.2 20.8
17:45 1020 30.12 849 25.07 7.8 46 38 -5.7 21.7
17:50 1020 30.12 849 25.07 7.4 45.4 39 -5.7 21.7
17:55 1020 30.12 849 25.07 7.1 44.8 40 -5.7 21.8
18:00 1020 30.12 849 25.07 7.1 44.7 38 -6.1 20.9
18:05 1020 30.12 849 25.07 7.2 45 39 -5.9 21.4
18:10 1020 30.12 849 25.07 7.2 44.9 39 -5.8 21.5
18:15 1020 30.12 849 25.07 7.1 44.8 40 -5.5 22.1
18:20 1020 30.12 849 25.07 6.7 44.1 42 -5.4 22.2
18:25 1020 30.12 849 25.07 6.5 43.7 42 -5.6 22
18:30 1020 30.12 849 25.07 6.4 43.6 41 -5.8 21.6
18:35 1020 30.12 849 25.07 6.4 43.5 41 -5.8 21.6
18:40 1020 30.12 850 25.1 6.5 43.7 42 -5.5 22.1
18:45 1020 30.12 850 25.1 6.4 43.5 42 -5.7 21.7
18:50 1020 30.12 850 25.1 6.4 43.4 42 -5.7 21.8
18:55 1021 30.15 850 25.1 6.4 43.5 41 -6 21.2
19:00 1020 30.12 850 25.1 6.5 43.6 40 -6.2 20.9
19:05 1020 30.12 850 25.1 6.7 44 37 -7.1 19.2
19:10 1020 30.12 850 25.1 7.2 44.9 36 -7 19.4
19:15 1021 30.15 850 25.1 7.4 45.2 36 -6.7 19.9
19:20 1021 30.15 850 25.1 7.2 44.9 38 -6.3 20.6
19:25 1021 30.15 850 25.1 7 44.6 37 -6.7 20
19:30 1021 30.15 850 25.1 6.9 44.5 38 -6.3 20.7
19:35 1021 30.15 850 25.1 6.7 44 39 -6.2 20.9
19:40 1021 30.15 850 25.1 6.4 43.5 37 -7.3 18.9
19:45 1021 30.15 850 25.1 7 44.7 36 -7.2 19
19:50 1021 30.15 850 25.1 7.1 44.8 35 -7.4 18.7
19:55 1021 30.15 850 25.1 7.3 45.1 36 -6.7 19.9
20:00 1021 30.15 850 25.1 7.1 44.7 37 -6.6 20.1
20:05 1020 30.12 850 25.1 7.3 45.1 33 -7.8 17.9
20:10 1020 30.12 849 25.07 7.6 45.7 33 -7.7 18.1
20:15 1020 30.12 849 25.07 7.9 46.1 33 -7.4 18.7
20:20 1020 30.12 849 25.07 7.7 45.9 33 -7.4 18.6
20:25 1020 30.12 849 25.07 7.5 45.4 33 -7.7 18.2
20:30 1020 30.12 850 25.1 7.8 46 33 -7.6 18.2
20:35 1020 30.12 850 25.1 7.7 45.8 32 -7.9 17.7
20:40 1020 30.12 850 25.1 7.7 45.9 32 -8 17.6
20:45 1020 30.12 850 25.1 7.5 45.5 32 -8.1 17.4
20:50 1020 30.12 850 25.1 7.5 45.5 32 -8.3 17
20:55 1020 30.12 850 25.1 7.6 45.7 33 -7.7 18.2
21:00 1020 30.12 850 25.1 7.1 44.8 35 -7.1 19.1
21:05 1020 30.12 850 25.1 6.7 44 36 -7.3 18.9
21:10 1020 30.12 850 25.1 6.7 44 36 -7.2 19.1
21:15 1020 30.12 850 25.1 6.7 44 35 -7.8 18
21:20 1020 30.12 850 25.1 6.7 44.1 37 -7 19.5
21:25 1020 30.12 850 25.1 6.2 43.1 39 -6.7 20
21:30 1020 30.12 850 25.1 5.8 42.4 39 -7.2 19
21:35 1020 30.12 850 25.1 5.8 42.5 39 -7.2 19.1
21:40 1020 30.12 850 25.1 5.9 42.6 35 -8.5 16.7
21:45 1020 30.12 850 25.1 6.3 43.4 37 -7.4 18.7
21:50 1020 30.12 850 25.1 6.1 42.9 35 -8.3 17.1
21:55 1021 30.15 850 25.1 6.2 43.2 35 -8.1 17.4
22:00 1021 30.15 850 25.1 6 42.8 37 -7.5 18.5
22:05 1021 30.15 850 25.1 5.8 42.5 37 -7.9 17.8
22:10 1021 30.15 850 25.1 5.9 42.6 38 -7.5 18.6
22:15 1021 30.15 850 25.1 5.6 42.1 37 -7.9 17.8
22:20 1021 30.15 850 25.1 5.6 42 38 -7.8 17.9
22:25 1021 30.15 850 25.1 5.6 42 37 -8.1 17.5
22:30 1020 30.12 850 25.1 5.6 42.1 37 -8.1 17.5
22:35 1020 30.12 850 25.1 5.6 42.1 38 -7.5 18.4
22:40 1021 30.15 850 25.1 5.5 41.9 37 -8.1 17.5
22:45 1021 30.15 850 25.1 5.9 42.6 37 -7.8 18
22:50 1021 30.15 850 25.1 5.9 42.6 37 -7.7 18.2
22:55 1021 30.15 850 25.1 5.8 42.5 37 -7.8 17.9
23:00 1021 30.15 850 25.1 5.9 42.6 37 -7.6 18.3
23:05 1021 30.15 850 25.1 5.7 42.2 38 -7.6 18.4
23:10 1021 30.15 850 25.1 5.5 41.9 39 -7.3 18.8
23:15 1021 30.15 850 25.1 5.5 41.9 37 -7.9 17.8
23:20 1021 30.15 850 25.1 5.7 42.2 38 -7.5 18.5
23:25 1021 30.15 850 25.1 5.5 41.9 41 -6.8 19.7
23:30 1021 30.15 850 25.1 5.3 41.5 40 -7.4 18.7
23:35 1021 30.15 850 25.1 5.2 41.4 40 -7.3 18.9
23:40 1021 30.15 850 25.1 4.9 40.8 41 -7.2 19
23:45 1021 30.15 850 25.1 4.8 40.7 40 -7.8 18
23:50 1021 30.15 850 25.1 5.1 41.2 39 -7.6 18.3
23:55 1021 30.15 850 25.1 5.2 41.3 39 -7.8 18
24:00 1021 30.15 850 25.1 5.2 41.4 40 -7.4 18.6